createdAt,value
2023-02-19T00:01:40.299Z,100669.19
2023-02-19T00:04:18.791Z,100673.56
2023-02-19T00:06:46.684Z,100670.72
2023-02-19T00:09:15.297Z,100660.81
2023-02-19T00:11:44.056Z,100663.84
2023-02-19T00:14:14.371Z,100637.88
2023-02-19T00:16:40.822Z,100634.19
2023-02-19T00:19:13.210Z,100645.34
2023-02-19T00:21:39.623Z,100649.63
2023-02-19T00:24:08.050Z,100647.91
2023-02-19T00:26:34.956Z,100657.47
2023-02-19T00:29:02.038Z,100657.88
2023-02-19T00:31:33.024Z,100655.59
2023-02-19T00:34:02.713Z,100661.50
2023-02-19T00:36:30.670Z,100660.97
2023-02-19T00:38:57.333Z,100670.81
2023-02-19T00:41:25.022Z,100669.94
2023-02-19T00:43:58.332Z,100675.03
2023-02-19T00:46:30.211Z,100676.13
2023-02-19T00:48:57.814Z,100648.66
2023-02-19T00:51:26.904Z,100617.97
2023-02-19T00:53:54.048Z,100637.81
2023-02-19T00:56:21.223Z,100646.34
2023-02-19T00:58:48.107Z,100636.94
2023-02-19T01:01:15.263Z,100637.19
2023-02-19T01:03:42.063Z,100657.09
2023-02-19T01:06:10.187Z,100653.25
2023-02-19T01:08:36.806Z,100652.16
2023-02-19T01:11:05.423Z,100653.19
2023-02-19T01:13:31.982Z,100648.13
2023-02-19T01:16:07.267Z,100644.44
2023-02-19T01:18:34.926Z,100634.53
2023-02-19T01:21:07.111Z,100640.69
2023-02-19T01:23:33.799Z,100641.03
2023-02-19T01:26:00.176Z,100637.59
2023-02-19T01:28:26.645Z,100644.66
2023-02-19T01:30:53.089Z,100637.53
2023-02-19T01:33:19.477Z,100630.06
2023-02-19T01:35:45.875Z,100632.69
2023-02-19T01:38:12.360Z,100642.03
2023-02-19T01:40:38.719Z,100631.16
2023-02-19T01:43:11.604Z,100640.25
2023-02-19T01:45:42.602Z,100636.78
2023-02-19T01:48:15.818Z,100622.09
2023-02-19T01:50:49.100Z,100623.16
2023-02-19T01:53:21.600Z,100611.88
2023-02-19T01:55:51.752Z,100609.13
2023-02-19T01:58:18.602Z,100606.50
2023-02-19T02:00:45.006Z,100615.69
2023-02-19T02:03:12.300Z,100603.91
2023-02-19T02:05:54.759Z,100596.78
2023-02-19T02:08:39.849Z,100593.56
2023-02-19T02:11:06.296Z,100589.59
2023-02-19T02:13:34.762Z,100587.34
2023-02-19T02:16:29.789Z,100583.22
2023-02-19T02:19:07.614Z,100582.56
2023-02-19T02:21:40.243Z,100574.84
2023-02-19T02:24:25.067Z,100573.97
2023-02-19T02:27:18.251Z,100578.09
2023-02-19T02:30:18.568Z,100570.19
2023-02-19T02:33:00.361Z,100566.56
2023-02-19T02:35:36.328Z,100569.19
2023-02-19T02:38:07.733Z,100575.09
2023-02-19T02:40:34.969Z,100565.69
2023-02-19T02:43:01.547Z,100558.22
2023-02-19T02:45:37.837Z,100569.81
2023-02-19T02:48:19.097Z,100572.63
2023-02-19T02:51:18.845Z,100569.03
2023-02-19T02:54:12.153Z,100566.47
2023-02-19T02:56:41.206Z,100556.22
2023-02-19T02:59:11.189Z,100553.81
2023-02-19T03:02:03.515Z,100559.19
2023-02-19T03:04:32.999Z,100571.06
2023-02-19T03:07:04.421Z,100578.03
2023-02-19T03:09:40.550Z,100572.91
2023-02-19T03:12:31.539Z,100566.47
2023-02-19T03:15:22.277Z,100578.53
2023-02-19T03:18:11.479Z,100575.13
2023-02-19T03:20:43.830Z,100575.47
2023-02-19T03:23:12.898Z,100569.56
2023-02-19T03:25:58.489Z,100569.06
2023-02-19T03:28:47.267Z,100567.28
2023-02-19T03:31:19.382Z,100568.25
2023-02-19T03:33:50.243Z,100567.72
2023-02-19T03:36:18.819Z,100564.25
2023-02-19T03:38:57.128Z,100568.50
2023-02-19T03:41:32.516Z,100574.56
2023-02-19T03:44:16.595Z,100574.09
2023-02-19T03:46:55.038Z,100571.59
2023-02-19T03:49:29.372Z,100588.88
2023-02-19T03:52:16.613Z,100581.25
2023-02-19T03:55:03.225Z,100590.16
2023-02-19T03:57:47.545Z,100596.41
2023-02-19T04:00:18.107Z,100587.41
2023-02-19T04:02:51.223Z,100593.25
2023-02-19T04:05:30.613Z,100588.25
2023-02-19T04:08:00.480Z,100580.81
2023-02-19T04:10:29.243Z,100573.09
2023-02-19T04:13:06.421Z,100567.88
2023-02-19T04:15:34.359Z,100570.63
2023-02-19T04:18:08.460Z,100562.78
2023-02-19T04:20:40.298Z,100568.34
2023-02-19T04:23:07.459Z,100571.47
2023-02-19T04:25:36.195Z,100581.47
2023-02-19T04:28:03.316Z,100591.16
2023-02-19T04:30:30.138Z,100586.88
2023-02-19T04:32:56.548Z,100587.44
2023-02-19T04:35:22.927Z,100588.34
2023-02-19T04:37:49.309Z,100585.81
2023-02-19T04:40:15.688Z,100591.78
2023-02-19T04:42:42.043Z,100598.47
2023-02-19T04:45:08.701Z,100593.22
2023-02-19T04:47:35.124Z,100607.53
2023-02-19T04:50:01.603Z,100603.97
2023-02-19T04:52:28.036Z,100605.84
2023-02-19T04:54:54.453Z,100604.41
2023-02-19T04:57:21.225Z,100608.53
2023-02-19T04:59:47.604Z,100609.41
2023-02-19T05:02:14.086Z,100610.75
2023-02-19T05:04:41.092Z,100610.84
2023-02-19T05:07:07.496Z,100616.31
2023-02-19T05:09:33.913Z,100621.31
2023-02-19T05:12:00.365Z,100616.72
2023-02-19T05:14:26.764Z,100620.47
2023-02-19T05:16:53.172Z,100609.19
2023-02-19T05:19:19.543Z,100605.53
2023-02-19T05:21:45.959Z,100613.50
2023-02-19T05:24:12.336Z,100625.72
2023-02-19T05:26:38.707Z,100617.44
2023-02-19T05:29:05.415Z,100620.38
2023-02-19T05:31:33.765Z,100630.78
2023-02-19T05:34:00.350Z,100640.09
2023-02-19T05:36:27.144Z,100626.66
2023-02-19T05:38:55.246Z,100642.00
2023-02-19T05:41:27.161Z,100638.69
2023-02-19T05:43:54.071Z,100640.66
2023-02-19T05:46:22.987Z,100638.16
2023-02-19T05:48:51.263Z,100641.53
2023-02-19T05:51:21.282Z,100640.75
2023-02-19T05:53:48.901Z,100643.28
2023-02-19T05:56:36.590Z,100652.69
2023-02-19T05:59:14.306Z,100656.00
2023-02-19T06:01:40.759Z,100660.06
2023-02-19T06:04:07.340Z,100670.75
2023-02-19T06:06:33.815Z,100673.19
2023-02-19T06:09:00.291Z,100676.03
2023-02-19T06:11:26.760Z,100677.09
2023-02-19T06:13:53.268Z,100685.66
2023-02-19T06:16:19.807Z,100682.13
2023-02-19T06:18:46.265Z,100691.91
2023-02-19T06:21:12.903Z,100698.41
2023-02-19T06:23:40.105Z,100704.91
2023-02-19T06:26:12.445Z,100711.31
2023-02-19T06:28:39.930Z,100711.44
2023-02-19T06:31:07.249Z,100710.56
2023-02-19T06:33:33.877Z,100714.56
2023-02-19T06:36:03.303Z,100713.72
2023-02-19T06:38:30.899Z,100711.16
2023-02-19T06:41:04.394Z,100712.91
2023-02-19T06:43:31.548Z,100720.13
2023-02-19T06:45:59.877Z,100714.31
2023-02-19T06:48:27.890Z,100701.50
2023-02-19T06:50:54.398Z,100699.81
2023-02-19T06:53:21.263Z,100715.38
2023-02-19T06:56:02.595Z,100721.00
2023-02-19T06:58:29.785Z,100730.81
2023-02-19T07:00:56.304Z,100727.16
2023-02-19T07:03:23.121Z,100736.59
2023-02-19T07:05:49.838Z,100759.69
2023-02-19T07:08:18.838Z,100755.22
2023-02-19T07:10:45.727Z,100770.59
2023-02-19T07:13:12.329Z,100772.84
2023-02-19T07:15:38.818Z,100762.44
2023-02-19T07:18:07.475Z,100772.88
2023-02-19T07:20:33.896Z,100777.19
2023-02-19T07:23:00.368Z,100781.56
2023-02-19T07:25:26.843Z,100779.59
2023-02-19T07:27:53.325Z,100786.78
2023-02-19T07:30:19.924Z,100780.69
2023-02-19T07:32:46.344Z,100776.47
2023-02-19T07:35:12.810Z,100757.75
2023-02-19T07:37:41.301Z,100756.34
2023-02-19T07:40:08.013Z,100761.59
2023-02-19T07:42:34.363Z,100779.41
2023-02-19T07:45:00.820Z,100789.13
2023-02-19T07:47:29.597Z,100803.56
2023-02-19T07:49:56.092Z,100813.34
2023-02-19T07:52:22.689Z,100814.69
2023-02-19T07:54:49.131Z,100821.16
2023-02-19T07:57:15.603Z,100823.63
2023-02-19T07:59:41.984Z,100829.53
2023-02-19T08:02:37.931Z,100823.38
2023-02-19T08:05:06.327Z,100825.00
2023-02-19T08:07:36.604Z,100823.41
2023-02-19T08:10:23.135Z,100822.31
2023-02-19T08:13:15.382Z,100831.28
2023-02-19T08:15:41.751Z,100829.63
2023-02-19T08:18:09.463Z,100829.72
2023-02-19T08:20:36.238Z,100832.50
2023-02-19T08:23:02.666Z,100842.84
2023-02-19T08:25:29.643Z,100841.09
2023-02-19T08:27:56.280Z,100850.28
2023-02-19T08:30:22.745Z,100855.28
2023-02-19T08:32:49.422Z,100865.63
2023-02-19T08:35:15.983Z,100845.38
2023-02-19T08:37:42.331Z,100849.28
2023-02-19T08:40:09.210Z,100847.59
2023-02-19T08:42:35.602Z,100836.22
2023-02-19T08:45:01.944Z,100853.00
2023-02-19T08:47:28.302Z,100853.13
2023-02-19T08:49:54.685Z,100865.50
2023-02-19T08:52:21.072Z,100863.72
2023-02-19T08:54:47.430Z,100880.50
2023-02-19T08:57:13.942Z,100879.63
2023-02-19T08:59:40.311Z,100894.75
2023-02-19T09:02:06.747Z,100889.63
2023-02-19T09:04:33.376Z,100892.78
2023-02-19T09:06:59.907Z,100891.78
2023-02-19T09:09:26.310Z,100899.16
2023-02-19T09:11:52.714Z,100901.34
2023-02-19T09:14:19.068Z,100903.88
2023-02-19T09:16:45.489Z,100902.91
2023-02-19T09:19:11.880Z,100902.81
2023-02-19T09:21:38.222Z,100904.75
2023-02-19T09:24:04.827Z,100920.88
2023-02-19T09:26:31.169Z,100941.06
2023-02-19T09:28:57.644Z,100942.81
2023-02-19T09:31:24.048Z,100948.63
2023-02-19T09:33:50.531Z,100955.53
2023-02-19T09:36:18.595Z,100948.03
2023-02-19T09:38:45.505Z,100950.53
2023-02-19T09:41:25.792Z,100942.28
2023-02-19T09:43:52.243Z,100938.22
2023-02-19T09:46:32.255Z,100947.06
2023-02-19T09:49:13.705Z,100951.78
2023-02-19T09:51:43.818Z,100956.19
2023-02-19T09:54:20.334Z,100958.53
2023-02-19T09:56:47.464Z,100959.53
2023-02-19T09:59:22.244Z,100960.19
2023-02-19T10:01:57.473Z,100959.88
2023-02-19T10:04:23.940Z,100959.31
2023-02-19T10:06:51.539Z,100953.66
2023-02-19T10:09:23.873Z,100960.38
2023-02-19T10:11:53.563Z,100960.34
2023-02-19T10:14:29.084Z,100963.97
2023-02-19T10:16:59.290Z,100958.59
2023-02-19T10:19:25.699Z,100966.88
2023-02-19T10:21:52.335Z,100968.56
2023-02-19T10:24:26.821Z,100975.31
2023-02-19T10:26:53.442Z,100966.25
2023-02-19T10:29:21.764Z,100967.34
2023-02-19T10:31:48.521Z,100972.78
2023-02-19T10:34:22.197Z,100971.59
2023-02-19T10:36:51.005Z,100984.69
2023-02-19T10:39:39.390Z,100979.16
2023-02-19T10:42:05.905Z,100992.66
2023-02-19T10:44:42.658Z,100987.59
2023-02-19T10:47:17.258Z,101002.00
2023-02-19T10:49:45.912Z,101005.97
2023-02-19T10:52:30.413Z,101018.28
2023-02-19T10:55:28.150Z,101016.09
2023-02-19T10:57:55.557Z,101023.13
2023-02-19T11:00:30.446Z,101032.53
2023-02-19T11:03:21.131Z,101035.34
2023-02-19T11:06:02.356Z,101042.47
2023-02-19T11:08:29.930Z,101046.84
2023-02-19T11:10:56.472Z,101035.66
2023-02-19T11:13:32.727Z,101028.63
2023-02-19T11:16:00.104Z,101029.50
2023-02-19T11:18:30.641Z,101024.56
2023-02-19T11:21:03.658Z,101007.44
2023-02-19T11:23:44.935Z,100989.25
2023-02-19T11:26:22.852Z,100987.00
2023-02-19T11:29:22.401Z,101008.50
2023-02-19T11:31:49.113Z,101012.81
2023-02-19T11:34:21.124Z,101018.09
2023-02-19T11:37:07.677Z,101004.44
2023-02-19T11:39:34.583Z,101015.19
2023-02-19T11:42:38.377Z,101000.59
2023-02-19T11:45:23.005Z,101004.25
2023-02-19T11:47:58.515Z,101012.22
2023-02-19T11:50:49.873Z,101011.06
2023-02-19T11:53:22.394Z,101011.06
2023-02-19T11:56:14.205Z,101012.97
2023-02-19T11:59:34.270Z,101023.69
2023-02-19T12:02:31.266Z,101033.91
2023-02-19T12:05:17.108Z,101040.66
2023-02-19T12:08:17.232Z,101043.16
2023-02-19T12:10:46.642Z,101053.44
2023-02-19T12:13:18.962Z,101042.00
2023-02-19T12:15:59.257Z,101048.00
2023-02-19T12:18:39.506Z,101043.47
2023-02-19T12:21:24.410Z,101039.78
2023-02-19T12:24:18.821Z,101039.00
2023-02-19T12:27:10.659Z,101038.91
2023-02-19T12:29:58.615Z,101028.97
2023-02-19T12:32:49.402Z,101032.41
2023-02-19T12:35:35.589Z,101019.84
2023-02-19T12:38:35.166Z,101027.22
2023-02-19T12:41:36.021Z,101038.03
2023-02-19T12:44:10.475Z,101030.16
2023-02-19T12:46:42.134Z,101024.50
2023-02-19T12:49:20.463Z,101028.38
2023-02-19T12:51:49.964Z,101031.00
2023-02-19T12:54:23.580Z,101028.94
2023-02-19T12:57:12.767Z,101025.97
2023-02-19T12:59:48.867Z,101019.06
2023-02-19T13:02:23.944Z,101019.31
2023-02-19T13:05:05.774Z,101013.38
2023-02-19T13:07:54.371Z,101015.78
2023-02-19T13:10:34.883Z,101016.66
2023-02-19T13:13:07.700Z,101013.31
2023-02-19T13:15:41.734Z,101017.94
2023-02-19T13:18:18.692Z,101002.63
2023-02-19T13:20:48.726Z,101009.19
2023-02-19T13:23:45.230Z,101009.28
2023-02-19T13:26:36.540Z,101004.38
2023-02-19T13:29:12.222Z,101001.22
2023-02-19T13:32:14.032Z,101012.31
2023-02-19T13:34:55.658Z,101000.34
2023-02-19T13:37:23.816Z,101005.47
2023-02-19T13:39:55.316Z,101004.72
2023-02-19T13:42:34.883Z,100990.88
2023-02-19T13:45:04.063Z,101000.59
2023-02-19T13:47:58.498Z,100999.25
2023-02-19T13:50:28.352Z,101006.22
2023-02-19T13:52:59.532Z,101018.34
2023-02-19T13:55:46.068Z,101009.25
2023-02-19T13:58:39.722Z,101021.94
2023-02-19T14:01:11.381Z,101027.75
2023-02-19T14:03:47.613Z,101031.13
2023-02-19T14:06:14.827Z,101036.41
2023-02-19T14:08:56.144Z,101033.03
2023-02-19T14:11:41.563Z,101026.34
2023-02-19T14:14:37.008Z,101029.84
2023-02-19T14:17:10.430Z,101028.41
2023-02-19T14:19:42.966Z,101034.97
2023-02-19T14:22:52.838Z,101036.72
2023-02-19T14:25:31.660Z,101035.75
2023-02-19T14:28:06.934Z,101046.16
2023-02-19T14:30:35.348Z,101054.25
2023-02-19T14:33:10.687Z,101053.75
2023-02-19T14:35:42.602Z,101040.00
2023-02-19T14:38:18.152Z,101036.47
2023-02-19T14:40:46.689Z,101041.34
2023-02-19T14:43:19.983Z,101045.59
2023-02-19T14:45:56.930Z,101041.31
2023-02-19T14:48:33.436Z,101051.81
2023-02-19T14:51:09.710Z,101059.81
2023-02-19T14:53:41.836Z,101056.38
2023-02-19T14:56:19.856Z,101063.41
2023-02-19T14:58:46.251Z,101062.47
2023-02-19T15:01:28.468Z,101058.84
2023-02-19T15:03:56.526Z,101076.06
2023-02-19T15:06:24.351Z,101080.03
2023-02-19T15:08:56.927Z,101072.25
2023-02-19T15:11:25.967Z,101077.75
2023-02-19T15:13:55.905Z,101087.00
2023-02-19T15:16:25.788Z,101085.59
2023-02-19T15:18:54.930Z,101095.00
2023-02-19T15:21:31.188Z,101087.00
2023-02-19T15:24:02.518Z,101094.28
2023-02-19T15:26:40.608Z,101089.34
2023-02-19T15:29:12.038Z,101100.41
2023-02-19T15:31:53.157Z,101094.78
2023-02-19T15:34:22.160Z,101094.72
2023-02-19T15:36:51.538Z,101107.69
2023-02-19T15:39:30.063Z,101101.75
2023-02-19T15:42:00.276Z,101107.22
2023-02-19T15:44:46.947Z,101105.28
2023-02-19T15:47:33.188Z,101110.59
2023-02-19T15:49:59.578Z,101108.69
2023-02-19T15:52:41.098Z,101112.75
2023-02-19T15:55:23.803Z,101111.75
2023-02-19T15:58:20.351Z,101114.41
2023-02-19T16:01:12.264Z,101106.41
2023-02-19T16:03:39.417Z,101106.63
2023-02-19T16:06:14.992Z,101110.25
2023-02-19T16:08:44.418Z,101099.72
2023-02-19T16:11:22.686Z,101098.09
2023-02-19T16:13:50.723Z,101097.72
2023-02-19T16:16:17.248Z,101100.31
2023-02-19T16:18:48.686Z,101093.72
2023-02-19T16:21:20.086Z,101084.25
2023-02-19T16:23:49.688Z,101094.81
2023-02-19T16:26:17.107Z,101090.31
2023-02-19T16:28:44.021Z,101085.94
2023-02-19T16:31:12.759Z,101095.84
2023-02-19T16:33:39.390Z,101099.38
2023-02-19T16:36:18.063Z,101085.22
2023-02-19T16:38:59.480Z,101090.63
2023-02-19T16:41:25.955Z,101089.00
2023-02-19T16:43:52.359Z,101088.22
2023-02-19T16:46:18.856Z,101089.09
2023-02-19T16:48:45.908Z,101095.31
2023-02-19T16:51:25.490Z,101090.94
2023-02-19T16:53:51.889Z,101098.31
2023-02-19T16:56:22.737Z,101102.00
2023-02-19T16:58:50.230Z,101099.22
2023-02-19T17:01:17.182Z,101115.34
2023-02-19T17:03:45.026Z,101115.22
2023-02-19T17:06:12.190Z,101119.94
2023-02-19T17:08:43.484Z,101109.94
2023-02-19T17:11:13.595Z,101126.50
2023-02-19T17:13:41.166Z,101126.69
2023-02-19T17:16:07.651Z,101127.38
2023-02-19T17:18:34.108Z,101133.88
2023-02-19T17:21:12.298Z,101141.88
2023-02-19T17:23:39.105Z,101140.97
2023-02-19T17:26:05.540Z,101139.09
2023-02-19T17:28:31.995Z,101146.00
2023-02-19T17:30:58.402Z,101155.06
2023-02-19T17:33:24.746Z,101155.34
2023-02-19T17:35:51.190Z,101167.25
2023-02-19T17:38:17.585Z,101184.13
2023-02-19T17:40:45.199Z,101179.31
2023-02-19T17:43:11.563Z,101181.03
2023-02-19T17:45:38.686Z,101184.50
2023-02-19T17:48:06.576Z,101190.63
2023-02-19T17:50:33.038Z,101182.28
2023-02-19T17:52:59.446Z,101189.47
2023-02-19T17:55:26.271Z,101187.47
2023-02-19T17:57:53.393Z,101197.88
2023-02-19T18:00:23.536Z,101202.00
2023-02-19T18:02:50.250Z,101210.00
2023-02-19T18:05:17.452Z,101230.97
2023-02-19T18:07:44.926Z,101230.28
2023-02-19T18:10:11.547Z,101238.88
2023-02-19T18:12:39.348Z,101246.66
2023-02-19T18:15:07.484Z,101251.91
2023-02-19T18:17:34.635Z,101253.84
2023-02-19T18:20:01.160Z,101251.09
2023-02-19T18:22:27.522Z,101260.03
2023-02-19T18:24:54.495Z,101250.44
2023-02-19T18:27:21.840Z,101261.31
2023-02-19T18:29:52.076Z,101251.38
2023-02-19T18:32:24.005Z,101249.84
2023-02-19T18:34:51.928Z,101254.09
2023-02-19T18:37:19.454Z,101251.59
2023-02-19T18:39:45.998Z,101263.31
2023-02-19T18:42:12.943Z,101262.06
2023-02-19T18:44:39.367Z,101252.81
2023-02-19T18:47:07.264Z,101251.25
2023-02-19T18:49:34.570Z,101253.19
2023-02-19T18:52:01.364Z,101257.59
2023-02-19T18:54:29.053Z,101252.31
2023-02-19T18:56:55.674Z,101247.00
2023-02-19T18:59:22.862Z,101252.41
2023-02-19T19:01:50.085Z,101259.47
2023-02-19T19:04:16.665Z,101250.53
2023-02-19T19:06:43.241Z,101244.19
2023-02-19T19:09:09.931Z,101247.88
2023-02-19T19:11:36.583Z,101244.25
2023-02-19T19:14:03.079Z,101241.41
2023-02-19T19:16:30.123Z,101241.56
2023-02-19T19:18:56.823Z,101239.00
2023-02-19T19:21:23.352Z,101237.28
2023-02-19T19:23:50.091Z,101237.94
2023-02-19T19:26:17.364Z,101235.66
2023-02-19T19:28:46.559Z,101234.31
2023-02-19T19:31:18.270Z,101233.34
2023-02-19T19:33:47.012Z,101238.72
2023-02-19T19:36:13.983Z,101247.50
2023-02-19T19:38:41.221Z,101236.97
2023-02-19T19:41:07.624Z,101239.81
2023-02-19T19:43:34.238Z,101236.19
2023-02-19T19:46:03.536Z,101243.31
2023-02-19T19:48:30.175Z,101238.78
2023-02-19T19:50:59.125Z,101230.97
2023-02-19T19:53:25.872Z,101239.00
2023-02-19T19:55:52.466Z,101239.91
2023-02-19T19:58:22.675Z,101241.88
2023-02-19T20:00:49.047Z,101254.91
2023-02-19T20:03:15.385Z,101249.53
2023-02-19T20:05:42.007Z,101253.28
2023-02-19T20:08:08.359Z,101262.28
2023-02-19T20:10:34.706Z,101273.50
2023-02-19T20:13:01.729Z,101278.75
2023-02-19T20:15:28.272Z,101280.91
2023-02-19T20:17:54.650Z,101276.28
2023-02-19T20:20:22.614Z,101282.38
2023-02-19T20:22:51.719Z,101288.69
2023-02-19T20:25:19.546Z,101281.78
2023-02-19T20:27:48.290Z,101281.88
2023-02-19T20:30:16.093Z,101278.97
2023-02-19T20:32:43.036Z,101280.00
2023-02-19T20:35:09.610Z,101279.97
2023-02-19T20:37:39.693Z,101279.22
2023-02-19T20:40:07.595Z,101281.63
2023-02-19T20:42:33.984Z,101289.28
2023-02-19T20:45:00.438Z,101295.06
2023-02-19T20:47:27.944Z,101296.78
2023-02-19T20:49:54.375Z,101299.59
2023-02-19T20:52:21.751Z,101298.66
2023-02-19T20:54:48.168Z,101296.00
2023-02-19T20:57:14.588Z,101296.09
2023-02-19T20:59:41.083Z,101295.13
2023-02-19T21:02:14.137Z,101292.25
2023-02-19T21:04:40.677Z,101292.34
2023-02-19T21:07:07.092Z,101289.63
2023-02-19T21:09:33.626Z,101293.13
2023-02-19T21:12:00.036Z,101296.66
2023-02-19T21:14:26.705Z,101300.25
2023-02-19T21:16:53.673Z,101304.91
2023-02-19T21:19:21.584Z,101306.69
2023-02-19T21:21:48.120Z,101307.53
2023-02-19T21:24:15.408Z,101311.09
2023-02-19T21:26:42.791Z,101319.97
2023-02-19T21:29:13.889Z,101326.16
2023-02-19T21:31:42.880Z,101328.63
2023-02-19T21:34:12.159Z,101333.03
2023-02-19T21:36:38.640Z,101326.84
2023-02-19T21:39:07.029Z,101336.59
2023-02-19T21:41:33.428Z,101332.16
2023-02-19T21:43:59.855Z,101332.19
2023-02-19T21:46:26.757Z,101341.25
2023-02-19T21:48:55.341Z,101331.28
2023-02-19T21:51:28.966Z,101343.56
2023-02-19T21:53:55.379Z,101336.88
2023-02-19T21:56:23.335Z,101332.41
2023-02-19T21:58:49.812Z,101336.81
2023-02-19T22:01:24.452Z,101318.25
2023-02-19T22:03:50.968Z,101321.69
2023-02-19T22:06:18.242Z,101335.91
2023-02-19T22:08:45.368Z,101333.16
2023-02-19T22:11:11.857Z,101332.28
2023-02-19T22:13:39.507Z,101333.38
2023-02-19T22:16:06.682Z,101336.13
2023-02-19T22:18:33.445Z,101352.03
2023-02-19T22:20:59.867Z,101349.41
2023-02-19T22:23:26.378Z,101355.63
2023-02-19T22:25:52.770Z,101353.94
2023-02-19T22:28:19.178Z,101360.81
2023-02-19T22:30:45.593Z,101358.44
2023-02-19T22:33:12.051Z,101363.00
2023-02-19T22:35:38.451Z,101362.34
2023-02-19T22:38:04.882Z,101372.84
2023-02-19T22:40:31.364Z,101371.97
2023-02-19T22:42:57.697Z,101372.78
2023-02-19T22:45:25.503Z,101384.50
2023-02-19T22:47:55.327Z,101376.53
2023-02-19T22:50:22.536Z,101368.63
2023-02-19T22:52:49.881Z,101369.50
2023-02-19T22:55:17.394Z,101374.72
2023-02-19T22:57:43.774Z,101360.66
2023-02-19T23:00:16.116Z,101365.19
2023-02-19T23:02:42.487Z,101365.09
2023-02-19T23:05:08.846Z,101364.44
2023-02-19T23:07:35.238Z,101363.66
2023-02-19T23:10:01.642Z,101368.81
2023-02-19T23:12:28.097Z,101367.03
2023-02-19T23:14:54.544Z,101364.44
2023-02-19T23:17:20.980Z,101360.16
2023-02-19T23:19:47.676Z,101357.59
2023-02-19T23:22:14.300Z,101358.47
2023-02-19T23:24:40.762Z,101360.25
2023-02-19T23:27:07.359Z,101362.91
2023-02-19T23:29:33.755Z,101377.16
2023-02-19T23:32:00.325Z,101369.09
2023-02-19T23:34:26.844Z,101374.53
2023-02-19T23:36:54.248Z,101378.94
2023-02-19T23:39:22.061Z,101393.91
2023-02-19T23:41:50.736Z,101397.56
2023-02-19T23:44:17.734Z,101396.56
2023-02-19T23:46:44.873Z,101385.00
2023-02-19T23:49:11.809Z,101384.16
2023-02-19T23:51:38.284Z,101375.19
2023-02-19T23:54:04.932Z,101378.56
2023-02-19T23:56:31.883Z,101370.81
2023-02-19T23:58:58.575Z,101371.47
